sensor_id;sensor_type;location;lat;lon;timestamp;P1;durP1;ratioP1;P2;durP2;ratioP2
25073;SDS011;13066;52.042;5.648;2023-11-21T00:00:03;22.80;;;16.38;;
25073;SDS011;13066;52.042;5.648;2023-11-21T00:02:39;24.50;;;15.98;;
25073;SDS011;13066;52.042;5.648;2023-11-21T00:05:07;23.45;;;15.95;;
25073;SDS011;13066;52.042;5.648;2023-11-21T00:07:36;25.75;;;15.95;;
25073;SDS011;13066;52.042;5.648;2023-11-21T00:10:04;19.85;;;15.52;;
25073;SDS011;13066;52.042;5.648;2023-11-21T00:12:33;23.48;;;16.77;;
25073;SDS011;13066;52.042;5.648;2023-11-21T00:15:01;24.63;;;16.80;;
25073;SDS011;13066;52.042;5.648;2023-11-21T00:17:29;22.40;;;16.73;;
25073;SDS011;13066;52.042;5.648;2023-11-21T00:19:58;20.42;;;15.18;;
25073;SDS011;13066;52.042;5.648;2023-11-21T00:22:26;22.77;;;16.35;;
25073;SDS011;13066;52.042;5.648;2023-11-21T00:24:54;21.38;;;15.68;;
25073;SDS011;13066;52.042;5.648;2023-11-21T00:27:22;21.23;;;15.57;;
25073;SDS011;13066;52.042;5.648;2023-11-21T00:29:50;22.35;;;15.73;;
25073;SDS011;13066;52.042;5.648;2023-11-21T00:32:18;22.10;;;15.57;;
25073;SDS011;13066;52.042;5.648;2023-11-21T00:34:45;22.95;;;16.80;;
25073;SDS011;13066;52.042;5.648;2023-11-21T00:37:15;26.25;;;16.10;;
25073;SDS011;13066;52.042;5.648;2023-11-21T00:39:43;22.73;;;16.60;;
25073;SDS011;13066;52.042;5.648;2023-11-21T00:42:11;25.58;;;17.55;;
25073;SDS011;13066;52.042;5.648;2023-11-21T00:44:39;22.23;;;16.08;;
25073;SDS011;13066;52.042;5.648;2023-11-21T00:47:07;22.45;;;16.98;;
25073;SDS011;13066;52.042;5.648;2023-11-21T00:49:35;23.48;;;16.15;;
25073;SDS011;13066;52.042;5.648;2023-11-21T00:52:06;22.08;;;16.65;;
25073;SDS011;13066;52.042;5.648;2023-11-21T00:54:36;25.70;;;16.98;;
25073;SDS011;13066;52.042;5.648;2023-11-21T00:57:04;21.65;;;15.38;;
25073;SDS011;13066;52.042;5.648;2023-11-21T00:59:32;20.20;;;14.95;;
25073;SDS011;13066;52.042;5.648;2023-11-21T01:02:00;22.02;;;15.70;;
25073;SDS011;13066;52.042;5.648;2023-11-21T01:04:28;24.58;;;16.85;;
25073;SDS011;13066;52.042;5.648;2023-11-21T01:06:56;22.85;;;16.13;;
25073;SDS011;13066;52.042;5.648;2023-11-21T01:09:24;20.60;;;15.80;;
25073;SDS011;13066;52.042;5.648;2023-11-21T01:11:53;20.52;;;15.50;;
25073;SDS011;13066;52.042;5.648;2023-11-21T01:14:21;19.48;;;15.23;;
25073;SDS011;13066;52.042;5.648;2023-11-21T01:16:49;19.40;;;15.48;;
25073;SDS011;13066;52.042;5.648;2023-11-21T01:19:17;22.83;;;16.02;;
25073;SDS011;13066;52.042;5.648;2023-11-21T01:21:45;20.08;;;14.43;;
25073;SDS011;13066;52.042;5.648;2023-11-21T01:24:13;21.20;;;15.57;;
25073;SDS011;13066;52.042;5.648;2023-11-21T01:26:41;24.00;;;15.80;;
25073;SDS011;13066;52.042;5.648;2023-11-21T01:29:11;21.27;;;15.73;;
25073;SDS011;13066;52.042;5.648;2023-11-21T01:31:39;22.42;;;16.63;;
25073;SDS011;13066;52.042;5.648;2023-11-21T01:34:08;21.23;;;15.45;;
25073;SDS011;13066;52.042;5.648;2023-11-21T01:36:36;22.48;;;15.57;;
25073;SDS011;13066;52.042;5.648;2023-11-21T01:39:04;22.50;;;16.02;;
25073;SDS011;13066;52.042;5.648;2023-11-21T01:41:35;21.65;;;15.38;;
25073;SDS011;13066;52.042;5.648;2023-11-21T01:44:03;24.80;;;16.85;;
25073;SDS011;13066;52.042;5.648;2023-11-21T01:46:35;21.92;;;16.38;;
25073;SDS011;13066;52.042;5.648;2023-11-21T01:49:04;23.90;;;16.58;;
25073;SDS011;13066;52.042;5.648;2023-11-21T01:51:32;20.98;;;15.32;;
25073;SDS011;13066;52.042;5.648;2023-11-21T01:54:01;21.48;;;16.63;;
25073;SDS011;13066;52.042;5.648;2023-11-21T01:56:31;23.40;;;16.15;;
25073;SDS011;13066;52.042;5.648;2023-11-21T01:59:00;25.52;;;17.25;;
25073;SDS011;13066;52.042;5.648;2023-11-21T02:01:28;21.27;;;16.30;;
25073;SDS011;13066;52.042;5.648;2023-11-21T02:03:57;22.50;;;16.38;;
25073;SDS011;13066;52.042;5.648;2023-11-21T02:06:25;24.45;;;16.35;;
25073;SDS011;13066;52.042;5.648;2023-11-21T02:08:53;20.13;;;16.52;;
25073;SDS011;13066;52.042;5.648;2023-11-21T02:11:21;21.75;;;15.65;;
25073;SDS011;13066;52.042;5.648;2023-11-21T02:13:50;26.15;;;16.55;;
25073;SDS011;13066;52.042;5.648;2023-11-21T02:16:20;22.23;;;16.23;;
25073;SDS011;13066;52.042;5.648;2023-11-21T02:18:48;21.20;;;15.88;;
25073;SDS011;13066;52.042;5.648;2023-11-21T02:21:18;20.02;;;15.60;;
25073;SDS011;13066;52.042;5.648;2023-11-21T02:23:48;26.83;;;17.35;;
25073;SDS011;13066;52.042;5.648;2023-11-21T02:26:17;22.77;;;16.15;;
25073;SDS011;13066;52.042;5.648;2023-11-21T02:28:47;23.58;;;16.88;;
25073;SDS011;13066;52.042;5.648;2023-11-21T02:31:15;25.00;;;16.67;;
25073;SDS011;13066;52.042;5.648;2023-11-21T02:33:43;25.65;;;17.70;;
25073;SDS011;13066;52.042;5.648;2023-11-21T02:36:11;25.10;;;17.02;;
25073;SDS011;13066;52.042;5.648;2023-11-21T02:38:39;28.38;;;18.30;;
25073;SDS011;13066;52.042;5.648;2023-11-21T02:41:08;26.23;;;18.15;;
25073;SDS011;13066;52.042;5.648;2023-11-21T02:43:36;28.05;;;17.80;;
25073;SDS011;13066;52.042;5.648;2023-11-21T02:46:05;26.05;;;17.15;;
25073;SDS011;13066;52.042;5.648;2023-11-21T02:48:34;24.42;;;17.13;;
25073;SDS011;13066;52.042;5.648;2023-11-21T02:51:02;25.02;;;17.67;;
25073;SDS011;13066;52.042;5.648;2023-11-21T02:53:31;23.35;;;17.42;;
25073;SDS011;13066;52.042;5.648;2023-11-21T02:55:59;23.48;;;16.85;;
25073;SDS011;13066;52.042;5.648;2023-11-21T02:58:28;22.42;;;16.30;;
25073;SDS011;13066;52.042;5.648;2023-11-21T03:00:56;21.88;;;15.82;;
25073;SDS011;13066;52.042;5.648;2023-11-21T03:03:24;21.40;;;16.33;;
25073;SDS011;13066;52.042;5.648;2023-11-21T03:05:52;19.33;;;15.45;;
25073;SDS011;13066;52.042;5.648;2023-11-21T03:08:20;24.88;;;16.02;;
25073;SDS011;13066;52.042;5.648;2023-11-21T03:10:48;22.45;;;14.63;;
25073;SDS011;13066;52.042;5.648;2023-11-21T03:13:16;23.30;;;15.75;;
25073;SDS011;13066;52.042;5.648;2023-11-21T03:15:45;20.50;;;14.95;;
25073;SDS011;13066;52.042;5.648;2023-11-21T03:18:13;20.80;;;14.93;;
25073;SDS011;13066;52.042;5.648;2023-11-21T03:20:43;18.27;;;14.43;;
25073;SDS011;13066;52.042;5.648;2023-11-21T03:23:12;18.95;;;14.70;;
25073;SDS011;13066;52.042;5.648;2023-11-21T03:25:41;19.17;;;14.45;;
25073;SDS011;13066;52.042;5.648;2023-11-21T03:28:09;21.10;;;14.95;;
25073;SDS011;13066;52.042;5.648;2023-11-21T03:30:37;18.42;;;14.63;;
25073;SDS011;13066;52.042;5.648;2023-11-21T03:33:06;19.40;;;14.30;;
25073;SDS011;13066;52.042;5.648;2023-11-21T03:35:34;16.65;;;13.77;;
25073;SDS011;13066;52.042;5.648;2023-11-21T03:38:02;19.67;;;14.80;;
25073;SDS011;13066;52.042;5.648;2023-11-21T03:40:30;16.83;;;13.75;;
25073;SDS011;13066;52.042;5.648;2023-11-21T03:43:00;18.08;;;14.52;;
25073;SDS011;13066;52.042;5.648;2023-11-21T03:45:28;16.92;;;13.57;;
25073;SDS011;13066;52.042;5.648;2023-11-21T03:47:56;16.40;;;13.35;;
25073;SDS011;13066;52.042;5.648;2023-11-21T03:50:25;16.98;;;13.00;;
25073;SDS011;13066;52.042;5.648;2023-11-21T03:52:53;15.13;;;12.32;;
25073;SDS011;13066;52.042;5.648;2023-11-21T03:55:22;17.98;;;13.40;;
25073;SDS011;13066;52.042;5.648;2023-11-21T03:57:50;14.23;;;12.30;;
25073;SDS011;13066;52.042;5.648;2023-11-21T04:00:18;15.57;;;13.32;;
25073;SDS011;13066;52.042;5.648;2023-11-21T04:02:48;16.35;;;12.63;;
25073;SDS011;13066;52.042;5.648;2023-11-21T04:05:19;18.52;;;12.88;;
25073;SDS011;13066;52.042;5.648;2023-11-21T04:07:49;15.70;;;12.32;;
25073;SDS011;13066;52.042;5.648;2023-11-21T04:10:17;17.25;;;13.43;;
25073;SDS011;13066;52.042;5.648;2023-11-21T04:12:46;15.77;;;12.80;;
25073;SDS011;13066;52.042;5.648;2023-11-21T04:15:14;15.68;;;11.73;;
25073;SDS011;13066;52.042;5.648;2023-11-21T04:17:43;15.18;;;11.20;;
25073;SDS011;13066;52.042;5.648;2023-11-21T04:20:12;14.70;;;12.10;;
25073;SDS011;13066;52.042;5.648;2023-11-21T04:22:39;15.75;;;12.15;;
25073;SDS011;13066;52.042;5.648;2023-11-21T04:25:12;13.68;;;11.30;;
25073;SDS011;13066;52.042;5.648;2023-11-21T04:27:43;17.13;;;12.30;;
25073;SDS011;13066;52.042;5.648;2023-11-21T04:30:12;14.55;;;11.63;;
25073;SDS011;13066;52.042;5.648;2023-11-21T04:32:41;17.23;;;13.00;;
25073;SDS011;13066;52.042;5.648;2023-11-21T04:35:09;14.60;;;12.00;;
25073;SDS011;13066;52.042;5.648;2023-11-21T04:37:42;15.00;;;11.95;;
25073;SDS011;13066;52.042;5.648;2023-11-21T04:40:12;17.50;;;13.73;;
25073;SDS011;13066;52.042;5.648;2023-11-21T04:42:40;16.23;;;12.98;;
25073;SDS011;13066;52.042;5.648;2023-11-21T04:45:08;15.93;;;12.80;;
25073;SDS011;13066;52.042;5.648;2023-11-21T04:47:39;14.82;;;11.65;;
25073;SDS011;13066;52.042;5.648;2023-11-21T04:50:07;15.77;;;12.57;;
25073;SDS011;13066;52.042;5.648;2023-11-21T04:52:35;14.00;;;11.50;;
25073;SDS011;13066;52.042;5.648;2023-11-21T04:55:04;17.15;;;12.48;;
25073;SDS011;13066;52.042;5.648;2023-11-21T04:57:34;14.10;;;11.38;;
25073;SDS011;13066;52.042;5.648;2023-11-21T05:00:03;15.20;;;12.25;;
25073;SDS011;13066;52.042;5.648;2023-11-21T05:02:32;17.25;;;12.77;;
25073;SDS011;13066;52.042;5.648;2023-11-21T05:05:02;15.00;;;11.70;;
25073;SDS011;13066;52.042;5.648;2023-11-21T05:07:32;14.48;;;12.38;;
25073;SDS011;13066;52.042;5.648;2023-11-21T05:10:02;14.13;;;11.52;;
25073;SDS011;13066;52.042;5.648;2023-11-21T05:12:35;16.13;;;11.75;;
25073;SDS011;13066;52.042;5.648;2023-11-21T05:15:04;14.52;;;11.52;;
25073;SDS011;13066;52.042;5.648;2023-11-21T05:17:36;15.38;;;12.13;;
25073;SDS011;13066;52.042;5.648;2023-11-21T05:20:07;14.80;;;11.95;;
25073;SDS011;13066;52.042;5.648;2023-11-21T05:22:36;17.08;;;12.95;;
25073;SDS011;13066;52.042;5.648;2023-11-21T05:25:05;20.15;;;12.57;;
25073;SDS011;13066;52.042;5.648;2023-11-21T05:27:35;17.95;;;12.13;;
25073;SDS011;13066;52.042;5.648;2023-11-21T05:30:04;14.30;;;11.65;;
25073;SDS011;13066;52.042;5.648;2023-11-21T05:32:32;16.45;;;12.20;;
25073;SDS011;13066;52.042;5.648;2023-11-21T05:35:01;15.43;;;11.48;;
25073;SDS011;13066;52.042;5.648;2023-11-21T05:37:29;13.63;;;10.88;;
25073;SDS011;13066;52.042;5.648;2023-11-21T05:39:57;14.60;;;11.25;;
25073;SDS011;13066;52.042;5.648;2023-11-21T05:42:26;16.27;;;12.20;;
25073;SDS011;13066;52.042;5.648;2023-11-21T05:44:55;17.17;;;12.18;;
25073;SDS011;13066;52.042;5.648;2023-11-21T05:47:25;18.30;;;12.00;;
25073;SDS011;13066;52.042;5.648;2023-11-21T05:49:54;17.67;;;12.02;;
25073;SDS011;13066;52.042;5.648;2023-11-21T05:52:22;14.68;;;11.25;;
25073;SDS011;13066;52.042;5.648;2023-11-21T05:54:50;16.20;;;11.50;;
25073;SDS011;13066;52.042;5.648;2023-11-21T05:57:18;14.63;;;11.57;;
25073;SDS011;13066;52.042;5.648;2023-11-21T05:59:46;18.70;;;12.23;;
25073;SDS011;13066;52.042;5.648;2023-11-21T06:02:15;16.92;;;12.65;;
25073;SDS011;13066;52.042;5.648;2023-11-21T06:04:43;18.60;;;11.95;;
25073;SDS011;13066;52.042;5.648;2023-11-21T06:07:10;19.80;;;12.32;;
25073;SDS011;13066;52.042;5.648;2023-11-21T06:09:38;18.25;;;12.20;;
25073;SDS011;13066;52.042;5.648;2023-11-21T06:12:07;15.23;;;11.65;;
25073;SDS011;13066;52.042;5.648;2023-11-21T06:14:35;14.63;;;11.10;;
25073;SDS011;13066;52.042;5.648;2023-11-21T06:17:03;15.82;;;11.68;;
25073;SDS011;13066;52.042;5.648;2023-11-21T06:19:32;14.10;;;10.43;;
25073;SDS011;13066;52.042;5.648;2023-11-21T06:22:01;13.10;;;9.80;;
25073;SDS011;13066;52.042;5.648;2023-11-21T06:24:28;13.55;;;10.45;;
25073;SDS011;13066;52.042;5.648;2023-11-21T06:26:56;13.88;;;10.65;;
25073;SDS011;13066;52.042;5.648;2023-11-21T06:29:25;15.52;;;11.15;;
25073;SDS011;13066;52.042;5.648;2023-11-21T06:31:53;14.48;;;10.65;;
25073;SDS011;13066;52.042;5.648;2023-11-21T06:34:21;13.70;;;11.13;;
25073;SDS011;13066;52.042;5.648;2023-11-21T06:36:51;15.82;;;10.80;;
25073;SDS011;13066;52.042;5.648;2023-11-21T06:39:18;15.60;;;10.80;;
25073;SDS011;13066;52.042;5.648;2023-11-21T06:41:49;15.25;;;10.30;;
25073;SDS011;13066;52.042;5.648;2023-11-21T06:44:16;13.25;;;11.13;;
25073;SDS011;13066;52.042;5.648;2023-11-21T06:46:46;12.85;;;10.02;;
25073;SDS011;13066;52.042;5.648;2023-11-21T06:49:15;15.85;;;11.02;;
25073;SDS011;13066;52.042;5.648;2023-11-21T06:51:43;14.10;;;11.13;;
25073;SDS011;13066;52.042;5.648;2023-11-21T06:54:12;14.38;;;11.00;;
25073;SDS011;13066;52.042;5.648;2023-11-21T06:56:41;13.95;;;11.35;;
25073;SDS011;13066;52.042;5.648;2023-11-21T06:59:08;16.00;;;11.88;;
25073;SDS011;13066;52.042;5.648;2023-11-21T07:01:37;14.77;;;11.50;;
25073;SDS011;13066;52.042;5.648;2023-11-21T07:04:07;13.75;;;11.10;;
25073;SDS011;13066;52.042;5.648;2023-11-21T07:06:35;14.38;;;10.60;;
25073;SDS011;13066;52.042;5.648;2023-11-21T07:09:04;13.70;;;10.45;;
25073;SDS011;13066;52.042;5.648;2023-11-21T07:11:33;15.90;;;11.02;;
25073;SDS011;13066;52.042;5.648;2023-11-21T07:14:01;15.55;;;11.05;;
25073;SDS011;13066;52.042;5.648;2023-11-21T07:16:33;14.43;;;10.82;;
25073;SDS011;13066;52.042;5.648;2023-11-21T07:19:03;14.65;;;11.15;;
25073;SDS011;13066;52.042;5.648;2023-11-21T07:21:32;16.05;;;12.40;;
25073;SDS011;13066;52.042;5.648;2023-11-21T07:24:00;14.75;;;11.80;;
25073;SDS011;13066;52.042;5.648;2023-11-21T07:26:29;18.80;;;12.95;;
25073;SDS011;13066;52.042;5.648;2023-11-21T07:28:58;16.17;;;11.77;;
25073;SDS011;13066;52.042;5.648;2023-11-21T07:31:27;15.23;;;12.20;;
25073;SDS011;13066;52.042;5.648;2023-11-21T07:33:55;14.57;;;11.00;;
25073;SDS011;13066;52.042;5.648;2023-11-21T07:36:24;14.38;;;11.93;;
25073;SDS011;13066;52.042;5.648;2023-11-21T07:38:51;17.20;;;11.98;;
25073;SDS011;13066;52.042;5.648;2023-11-21T07:41:20;13.52;;;11.02;;
25073;SDS011;13066;52.042;5.648;2023-11-21T07:43:58;12.85;;;10.32;;
25073;SDS011;13066;52.042;5.648;2023-11-21T07:46:26;14.15;;;11.13;;
25073;SDS011;13066;52.042;5.648;2023-11-21T07:48:54;16.23;;;12.00;;
25073;SDS011;13066;52.042;5.648;2023-11-21T07:51:22;17.45;;;11.45;;
25073;SDS011;13066;52.042;5.648;2023-11-21T07:53:50;16.50;;;11.98;;
25073;SDS011;13066;52.042;5.648;2023-11-21T07:56:18;13.45;;;11.38;;
25073;SDS011;13066;52.042;5.648;2023-11-21T07:58:46;12.40;;;10.73;;
25073;SDS011;13066;52.042;5.648;2023-11-21T08:01:16;12.90;;;11.15;;
25073;SDS011;13066;52.042;5.648;2023-11-21T08:03:44;13.35;;;10.43;;
25073;SDS011;13066;52.042;5.648;2023-11-21T08:06:13;12.10;;;10.18;;
25073;SDS011;13066;52.042;5.648;2023-11-21T08:08:41;12.02;;;10.05;;
25073;SDS011;13066;52.042;5.648;2023-11-21T08:11:09;12.40;;;10.55;;
25073;SDS011;13066;52.042;5.648;2023-11-21T08:13:37;12.70;;;10.80;;
25073;SDS011;13066;52.042;5.648;2023-11-21T08:16:05;11.40;;;10.10;;
25073;SDS011;13066;52.042;5.648;2023-11-21T08:18:35;11.82;;;9.75;;
25073;SDS011;13066;52.042;5.648;2023-11-21T08:21:03;10.52;;;9.15;;
25073;SDS011;13066;52.042;5.648;2023-11-21T08:23:31;11.35;;;9.70;;
25073;SDS011;13066;52.042;5.648;2023-11-21T08:26:00;10.27;;;9.13;;
25073;SDS011;13066;52.042;5.648;2023-11-21T08:28:32;11.00;;;8.65;;
25073;SDS011;13066;52.042;5.648;2023-11-21T08:31:00;10.43;;;9.32;;
25073;SDS011;13066;52.042;5.648;2023-11-21T08:33:28;10.65;;;8.90;;
25073;SDS011;13066;52.042;5.648;2023-11-21T08:35:57;10.27;;;9.00;;
25073;SDS011;13066;52.042;5.648;2023-11-21T08:38:27;12.10;;;9.65;;
25073;SDS011;13066;52.042;5.648;2023-11-21T08:40:55;12.20;;;9.63;;
25073;SDS011;13066;52.042;5.648;2023-11-21T08:43:23;13.07;;;9.40;;
25073;SDS011;13066;52.042;5.648;2023-11-21T08:45:54;11.00;;;9.32;;
25073;SDS011;13066;52.042;5.648;2023-11-21T08:48:22;12.48;;;9.60;;
25073;SDS011;13066;52.042;5.648;2023-11-21T08:50:50;13.05;;;9.73;;
25073;SDS011;13066;52.042;5.648;2023-11-21T08:53:19;11.80;;;9.95;;
25073;SDS011;13066;52.042;5.648;2023-11-21T08:55:48;14.45;;;10.60;;
25073;SDS011;13066;52.042;5.648;2023-11-21T08:58:16;12.15;;;9.82;;
25073;SDS011;13066;52.042;5.648;2023-11-21T09:00:44;13.80;;;10.32;;
25073;SDS011;13066;52.042;5.648;2023-11-21T09:03:13;13.57;;;10.25;;
25073;SDS011;13066;52.042;5.648;2023-11-21T09:05:40;10.85;;;9.68;;
25073;SDS011;13066;52.042;5.648;2023-11-21T09:08:08;12.82;;;10.13;;
25073;SDS011;13066;52.042;5.648;2023-11-21T09:10:37;13.77;;;11.07;;
25073;SDS011;13066;52.042;5.648;2023-11-21T09:13:06;12.38;;;10.05;;
25073;SDS011;13066;52.042;5.648;2023-11-21T09:15:36;14.32;;;11.48;;
25073;SDS011;13066;52.042;5.648;2023-11-21T09:18:04;16.63;;;12.82;;
25073;SDS011;13066;52.042;5.648;2023-11-21T09:20:32;13.32;;;11.63;;
25073;SDS011;13066;52.042;5.648;2023-11-21T09:23:00;13.27;;;11.43;;
25073;SDS011;13066;52.042;5.648;2023-11-21T09:25:28;14.65;;;11.50;;
25073;SDS011;13066;52.042;5.648;2023-11-21T09:27:57;16.95;;;13.32;;
25073;SDS011;13066;52.042;5.648;2023-11-21T09:30:26;17.60;;;12.73;;
25073;SDS011;13066;52.042;5.648;2023-11-21T09:32:53;15.40;;;12.40;;
25073;SDS011;13066;52.042;5.648;2023-11-21T09:35:21;14.63;;;12.82;;
25073;SDS011;13066;52.042;5.648;2023-11-21T09:37:50;16.90;;;13.68;;
25073;SDS011;13066;52.042;5.648;2023-11-21T09:40:20;15.02;;;12.52;;
25073;SDS011;13066;52.042;5.648;2023-11-21T09:42:52;15.50;;;12.95;;
25073;SDS011;13066;52.042;5.648;2023-11-21T09:45:26;18.40;;;13.57;;
25073;SDS011;13066;52.042;5.648;2023-11-21T09:47:55;17.50;;;13.10;;
25073;SDS011;13066;52.042;5.648;2023-11-21T09:50:24;16.45;;;13.23;;
25073;SDS011;13066;52.042;5.648;2023-11-21T09:52:57;19.75;;;14.30;;
25073;SDS011;13066;52.042;5.648;2023-11-21T09:55:34;17.45;;;14.13;;
25073;SDS011;13066;52.042;5.648;2023-11-21T09:58:03;17.05;;;13.98;;
25073;SDS011;13066;52.042;5.648;2023-11-21T10:00:35;15.60;;;13.07;;
25073;SDS011;13066;52.042;5.648;2023-11-21T10:03:03;14.40;;;12.32;;
25073;SDS011;13066;52.042;5.648;2023-11-21T10:05:31;16.90;;;13.23;;
25073;SDS011;13066;52.042;5.648;2023-11-21T10:08:00;17.48;;;13.70;;
25073;SDS011;13066;52.042;5.648;2023-11-21T10:10:29;17.52;;;14.00;;
25073;SDS011;13066;52.042;5.648;2023-11-21T10:13:01;16.02;;;13.15;;
25073;SDS011;13066;52.042;5.648;2023-11-21T10:15:33;16.02;;;14.00;;
25073;SDS011;13066;52.042;5.648;2023-11-21T10:18:03;14.25;;;12.73;;
25073;SDS011;13066;52.042;5.648;2023-11-21T10:20:33;14.90;;;12.60;;
25073;SDS011;13066;52.042;5.648;2023-11-21T10:23:01;15.95;;;13.30;;
25073;SDS011;13066;52.042;5.648;2023-11-21T10:25:32;17.55;;;14.52;;
25073;SDS011;13066;52.042;5.648;2023-11-21T10:28:01;16.33;;;14.00;;
25073;SDS011;13066;52.042;5.648;2023-11-21T10:30:35;16.98;;;13.95;;
25073;SDS011;13066;52.042;5.648;2023-11-21T10:33:05;17.73;;;14.80;;
25073;SDS011;13066;52.042;5.648;2023-11-21T10:35:39;17.65;;;14.45;;
25073;SDS011;13066;52.042;5.648;2023-11-21T10:38:13;17.10;;;13.02;;
25073;SDS011;13066;52.042;5.648;2023-11-21T10:40:43;15.70;;;12.95;;
25073;SDS011;13066;52.042;5.648;2023-11-21T10:43:13;17.35;;;13.30;;
25073;SDS011;13066;52.042;5.648;2023-11-21T10:45:42;16.75;;;13.20;;
25073;SDS011;13066;52.042;5.648;2023-11-21T10:48:12;15.77;;;12.88;;
25073;SDS011;13066;52.042;5.648;2023-11-21T10:50:42;15.55;;;12.98;;
25073;SDS011;13066;52.042;5.648;2023-11-21T10:53:11;15.18;;;12.73;;
25073;SDS011;13066;52.042;5.648;2023-11-21T10:55:39;16.90;;;12.80;;
25073;SDS011;13066;52.042;5.648;2023-11-21T10:58:07;13.70;;;11.52;;
25073;SDS011;13066;52.042;5.648;2023-11-21T11:00:37;12.05;;;10.73;;
25073;SDS011;13066;52.042;5.648;2023-11-21T11:03:07;14.60;;;11.23;;
25073;SDS011;13066;52.042;5.648;2023-11-21T11:05:42;14.18;;;11.50;;
25073;SDS011;13066;52.042;5.648;2023-11-21T11:08:19;14.85;;;11.43;;
25073;SDS011;13066;52.042;5.648;2023-11-21T11:10:54;15.63;;;11.60;;
25073;SDS011;13066;52.042;5.648;2023-11-21T11:13:22;15.48;;;11.00;;
25073;SDS011;13066;52.042;5.648;2023-11-21T11:15:51;16.02;;;11.65;;
25073;SDS011;13066;52.042;5.648;2023-11-21T11:18:27;13.35;;;10.90;;
25073;SDS011;13066;52.042;5.648;2023-11-21T11:20:59;15.00;;;11.65;;
25073;SDS011;13066;52.042;5.648;2023-11-21T11:23:35;12.38;;;10.52;;
25073;SDS011;13066;52.042;5.648;2023-11-21T11:26:12;15.35;;;11.45;;
25073;SDS011;13066;52.042;5.648;2023-11-21T11:28:51;13.77;;;11.32;;
25073;SDS011;13066;52.042;5.648;2023-11-21T11:31:26;14.27;;;10.63;;
25073;SDS011;13066;52.042;5.648;2023-11-21T11:33:57;15.23;;;11.68;;
25073;SDS011;13066;52.042;5.648;2023-11-21T11:36:31;15.48;;;12.02;;
25073;SDS011;13066;52.042;5.648;2023-11-21T11:39:04;17.63;;;12.60;;
25073;SDS011;13066;52.042;5.648;2023-11-21T11:41:55;17.92;;;12.32;;
25073;SDS011;13066;52.042;5.648;2023-11-21T11:47:20;13.30;;;11.00;;
25073;SDS011;13066;52.042;5.648;2023-11-21T11:50:00;12.93;;;10.10;;
25073;SDS011;13066;52.042;5.648;2023-11-21T11:52:38;11.60;;;9.00;;
25073;SDS011;13066;52.042;5.648;2023-11-21T11:55:08;11.55;;;9.38;;
25073;SDS011;13066;52.042;5.648;2023-11-21T11:57:40;10.95;;;8.45;;
25073;SDS011;13066;52.042;5.648;2023-11-21T12:00:13;10.60;;;8.57;;
25073;SDS011;13066;52.042;5.648;2023-11-21T12:02:47;11.57;;;9.15;;
25073;SDS011;13066;52.042;5.648;2023-11-21T12:05:16;11.43;;;9.02;;
25073;SDS011;13066;52.042;5.648;2023-11-21T12:07:47;11.43;;;9.02;;
25073;SDS011;13066;52.042;5.648;2023-11-21T12:10:18;10.63;;;8.27;;
25073;SDS011;13066;52.042;5.648;2023-11-21T12:12:48;9.75;;;8.23;;
25073;SDS011;13066;52.042;5.648;2023-11-21T12:15:15;11.45;;;8.57;;
25073;SDS011;13066;52.042;5.648;2023-11-21T12:17:44;10.20;;;8.13;;
25073;SDS011;13066;52.042;5.648;2023-11-21T12:20:13;10.98;;;8.05;;
25073;SDS011;13066;52.042;5.648;2023-11-21T12:22:44;10.68;;;8.35;;
25073;SDS011;13066;52.042;5.648;2023-11-21T12:25:15;10.20;;;8.88;;
25073;SDS011;13066;52.042;5.648;2023-11-21T12:27:45;12.48;;;9.25;;
25073;SDS011;13066;52.042;5.648;2023-11-21T12:30:16;12.27;;;10.20;;
25073;SDS011;13066;52.042;5.648;2023-11-21T12:32:47;13.32;;;10.40;;
25073;SDS011;13066;52.042;5.648;2023-11-21T12:35:18;14.20;;;10.55;;
25073;SDS011;13066;52.042;5.648;2023-11-21T12:37:49;13.48;;;10.43;;
25073;SDS011;13066;52.042;5.648;2023-11-21T12:40:18;12.93;;;10.55;;
25073;SDS011;13066;52.042;5.648;2023-11-21T12:42:50;12.93;;;9.98;;
25073;SDS011;13066;52.042;5.648;2023-11-21T12:45:21;11.85;;;9.80;;
25073;SDS011;13066;52.042;5.648;2023-11-21T12:47:54;14.90;;;11.23;;
25073;SDS011;13066;52.042;5.648;2023-11-21T12:50:24;13.35;;;10.82;;
25073;SDS011;13066;52.042;5.648;2023-11-21T12:52:59;14.00;;;11.43;;
25073;SDS011;13066;52.042;5.648;2023-11-21T12:55:29;15.23;;;11.73;;
25073;SDS011;13066;52.042;5.648;2023-11-21T12:57:57;15.73;;;12.20;;
25073;SDS011;13066;52.042;5.648;2023-11-21T13:00:35;15.60;;;12.60;;
25073;SDS011;13066;52.042;5.648;2023-11-21T13:03:06;16.35;;;12.57;;
25073;SDS011;13066;52.042;5.648;2023-11-21T13:05:37;17.45;;;13.52;;
25073;SDS011;13066;52.042;5.648;2023-11-21T13:08:07;15.82;;;12.38;;
25073;SDS011;13066;52.042;5.648;2023-11-21T13:10:38;16.33;;;12.43;;
25073;SDS011;13066;52.042;5.648;2023-11-21T13:13:09;15.63;;;12.18;;
25073;SDS011;13066;52.042;5.648;2023-11-21T13:15:47;15.88;;;13.00;;
25073;SDS011;13066;52.042;5.648;2023-11-21T13:18:16;15.70;;;12.70;;
25073;SDS011;13066;52.042;5.648;2023-11-21T13:20:44;16.73;;;12.48;;
25073;SDS011;13066;52.042;5.648;2023-11-21T13:23:14;15.45;;;11.90;;
25073;SDS011;13066;52.042;5.648;2023-11-21T13:25:42;17.13;;;13.30;;
25073;SDS011;13066;52.042;5.648;2023-11-21T13:28:20;14.90;;;12.43;;
25073;SDS011;13066;52.042;5.648;2023-11-21T13:30:50;15.88;;;12.45;;
25073;SDS011;13066;52.042;5.648;2023-11-21T13:33:19;15.23;;;12.27;;
25073;SDS011;13066;52.042;5.648;2023-11-21T13:35:54;15.75;;;13.00;;
25073;SDS011;13066;52.042;5.648;2023-11-21T13:38:24;16.85;;;12.75;;
25073;SDS011;13066;52.042;5.648;2023-11-21T13:40:58;14.95;;;11.90;;
25073;SDS011;13066;52.042;5.648;2023-11-21T13:43:26;14.45;;;12.60;;
25073;SDS011;13066;52.042;5.648;2023-11-21T13:45:55;14.30;;;12.13;;
25073;SDS011;13066;52.042;5.648;2023-11-21T13:48:29;13.43;;;11.35;;
25073;SDS011;13066;52.042;5.648;2023-11-21T13:51:07;14.85;;;11.68;;
25073;SDS011;13066;52.042;5.648;2023-11-21T13:53:43;13.77;;;11.25;;
25073;SDS011;13066;52.042;5.648;2023-11-21T13:56:13;13.80;;;11.07;;
25073;SDS011;13066;52.042;5.648;2023-11-21T13:58:46;11.40;;;9.80;;
25073;SDS011;13066;52.042;5.648;2023-11-21T14:01:18;13.68;;;11.10;;
25073;SDS011;13066;52.042;5.648;2023-11-21T14:04:09;11.93;;;10.57;;
25073;SDS011;13066;52.042;5.648;2023-11-21T14:06:45;13.68;;;11.27;;
25073;SDS011;13066;52.042;5.648;2023-11-21T14:09:17;11.73;;;10.02;;
25073;SDS011;13066;52.042;5.648;2023-11-21T14:11:51;11.77;;;9.85;;
25073;SDS011;13066;52.042;5.648;2023-11-21T14:14:21;13.32;;;9.73;;
25073;SDS011;13066;52.042;5.648;2023-11-21T14:16:50;11.35;;;8.80;;
25073;SDS011;13066;52.042;5.648;2023-11-21T14:19:18;11.35;;;9.20;;
25073;SDS011;13066;52.042;5.648;2023-11-21T14:21:46;11.55;;;9.52;;
25073;SDS011;13066;52.042;5.648;2023-11-21T14:24:15;11.60;;;9.50;;
25073;SDS011;13066;52.042;5.648;2023-11-21T14:26:46;11.90;;;9.48;;
25073;SDS011;13066;52.042;5.648;2023-11-21T14:29:15;16.13;;;11.25;;
25073;SDS011;13066;52.042;5.648;2023-11-21T14:31:47;13.38;;;10.52;;
25073;SDS011;13066;52.042;5.648;2023-11-21T14:34:15;13.80;;;11.68;;
25073;SDS011;13066;52.042;5.648;2023-11-21T14:36:48;14.20;;;11.38;;
25073;SDS011;13066;52.042;5.648;2023-11-21T14:39:16;17.92;;;13.20;;